Time;durP1;ratioP1;P1;durP2;ratioP2;P2;SDS_P1;SDS_P2;PMS_P1;PMS_P2;Temp;Humidity;BMP_temperature;BMP_pressure;BME280_temperature;BME280_humidity;BME280_pressure;Samples;Min_cycle;Max_cycle;Signal;HPM_P1;HPM_P2
2022/09/14 00:02:08;;;;;;;1.00;1.00;;;;;;;;;;5099061;28;20462;-77
2022/09/14 00:04:37;;;;;;;0.70;0.70;;;;;;;;;;5102490;28;20930;-77
2022/09/14 00:07:04;;;;;;;1.10;1.00;;;;;;;;;;5061940;28;20867;-77
2022/09/14 00:09:31;;;;;;;0.70;0.70;;;;;;;;;;5074553;28;20437;-78
2022/09/14 00:11:58;;;;;;;0.77;0.77;;;;;;;;;;5076566;28;20826;-77
2022/09/14 00:14:25;;;;;;;1.03;0.93;;;;;;;;;;5073295;28;20427;-77
2022/09/14 00:16:52;;;;;;;1.63;1.53;;;;;;;;;;5091514;28;20475;-77
2022/09/14 00:19:22;;;;;;;0.70;0.70;;;;;;;;;;5089922;28;20437;-77
2022/09/14 00:21:50;;;;;;;0.70;0.70;;;;;;;;;;5062895;28;20514;-78
2022/09/14 00:24:17;;;;;;;1.30;1.20;;;;;;;;;;5080767;28;20443;-77
2022/09/14 00:26:44;;;;;;;2.70;2.50;;;;;;;;;;5097043;28;20496;-78
2022/09/14 00:29:11;;;;;;;0.67;0.67;;;;;;;;;;5084214;28;20990;-78
2022/09/14 00:31:38;;;;;;;0.70;0.70;;;;;;;;;;5076157;28;20438;-78
2022/09/14 00:34:06;;;;;;;0.70;0.70;;;;;;;;;;5076938;28;20460;-78
2022/09/14 00:36:38;;;;;;;2.27;2.17;;;;;;;;;;5075767;28;20466;-78
2022/09/14 00:39:05;;;;;;;0.80;0.80;;;;;;;;;;5085211;28;20537;-78
2022/09/14 00:41:34;;;;;;;0.70;0.60;;;;;;;;;;5083476;28;20541;-78
2022/09/14 00:44:04;;;;;;;0.83;0.83;;;;;;;;;;5075532;28;20823;-79
2022/09/14 00:46:34;;;;;;;1.00;1.00;;;;;;;;;;5063918;28;20486;-78
2022/09/14 00:49:03;;;;;;;1.37;1.27;;;;;;;;;;5063317;28;20774;-79
2022/09/14 00:51:31;;;;;;;1.53;0.90;;;;;;;;;;5095598;28;20469;-81
2022/09/14 00:54:01;;;;;;;0.70;0.70;;;;;;;;;;5067210;28;20458;-79
2022/09/14 00:56:28;;;;;;;0.70;0.70;;;;;;;;;;5062264;28;20440;-79
2022/09/14 00:58:57;;;;;;;0.70;0.60;;;;;;;;;;5081607;28;20975;-78
2022/09/14 01:01:24;;;;;;;0.60;0.60;;;;;;;;;;5080112;28;20554;-79
2022/09/14 01:03:52;;;;;;;1.27;1.17;;;;;;;;;;5072622;28;20449;-78
2022/09/14 01:06:25;;;;;;;0.73;0.73;;;;;;;;;;5077598;28;20475;-78
2022/09/14 01:08:58;;;;;;;1.10;1.00;;;;;;;;;;5071852;28;20420;-79
2022/09/14 01:11:37;;;;;;;2.00;1.60;;;;;;;;;;5076384;28;20457;-78
2022/09/14 01:14:09;;;;;;;0.70;0.63;;;;;;;;;;5080790;28;20793;-78
2022/09/14 01:16:41;;;;;;;0.70;0.70;;;;;;;;;;5081803;28;20452;-79
2022/09/14 01:19:12;;;;;;;1.30;1.20;;;;;;;;;;5079523;28;20540;-79
2022/09/14 01:21:40;;;;;;;1.87;1.77;;;;;;;;;;5087921;28;20472;-80
2022/09/14 01:24:11;;;;;;;0.77;0.77;;;;;;;;;;5062381;28;20442;-79
2022/09/14 01:26:49;;;;;;;1.50;1.40;;;;;;;;;;5087658;28;20524;-78
2022/09/14 01:29:20;;;;;;;2.23;1.20;;;;;;;;;;5068835;28;20463;-78
2022/09/14 01:31:50;;;;;;;1.07;0.97;;;;;;;;;;5073787;28;20542;-78
2022/09/14 01:34:22;;;;;;;1.43;1.33;;;;;;;;;;5088974;28;20457;-78
2022/09/14 01:36:53;;;;;;;2.80;1.83;;;;;;;;;;5076089;28;20470;-78
2022/09/14 01:39:20;;;;;;;0.80;0.80;;;;;;;;;;5047312;28;20456;-78
2022/09/14 01:41:50;;;;;;;0.63;0.63;;;;;;;;;;5085151;28;21063;-78
2022/09/14 01:44:19;;;;;;;1.00;0.90;;;;;;;;;;5097438;28;20449;-78
2022/09/14 01:46:49;;;;;;;0.70;0.60;;;;;;;;;;5081860;28;20827;-78
2022/09/14 01:49:21;;;;;;;4.17;1.50;;;;;;;;;;5081605;28;20550;-79
2022/09/14 01:51:52;;;;;;;0.70;0.70;;;;;;;;;;5077391;28;20469;-79
2022/09/14 01:54:22;;;;;;;1.57;1.13;;;;;;;;;;5080544;28;20463;-79
2022/09/14 01:56:51;;;;;;;1.20;1.20;;;;;;;;;;5077343;28;20476;-78
2022/09/14 01:59:19;;;;;;;0.80;0.80;;;;;;;;;;5078605;28;20450;-78
2022/09/14 02:01:50;;;;;;;1.90;1.80;;;;;;;;;;5061566;28;20479;-78
2022/09/14 02:04:21;;;;;;;1.33;1.20;;;;;;;;;;5059548;28;20939;-77
2022/09/14 02:06:47;;;;;;;2.43;2.30;;;;;;;;;;5083851;28;20466;-78
2022/09/14 02:09:17;;;;;;;0.60;0.60;;;;;;;;;;5077622;28;20510;-77
2022/09/14 02:11:44;;;;;;;0.80;0.80;;;;;;;;;;5080459;28;20521;-76
2022/09/14 02:14:11;;;;;;;1.17;1.17;;;;;;;;;;5079198;28;20451;-75
2022/09/14 02:16:42;;;;;;;1.53;1.43;;;;;;;;;;5094898;28;20456;-76
2022/09/14 02:19:10;;;;;;;1.00;0.90;;;;;;;;;;5078752;28;20451;-77
2022/09/14 02:21:37;;;;;;;1.20;1.10;;;;;;;;;;5065953;28;20499;-77
2022/09/14 02:24:06;;;;;;;0.60;0.60;;;;;;;;;;5084150;28;20444;-77
2022/09/14 02:26:35;;;;;;;0.70;0.70;;;;;;;;;;5081855;28;20460;-77
2022/09/14 02:29:04;;;;;;;0.80;0.80;;;;;;;;;;5078763;28;20465;-77
2022/09/14 02:31:40;;;;;;;1.33;1.23;;;;;;;;;;5088950;28;20427;-76
2022/09/14 02:34:17;;;;;;;1.60;1.50;;;;;;;;;;5057691;28;21031;-77
2022/09/14 02:36:47;;;;;;;0.77;0.77;;;;;;;;;;5077581;28;20518;-77
2022/09/14 02:39:22;;;;;;;1.37;1.23;;;;;;;;;;5080798;28;20582;-77
2022/09/14 02:41:53;;;;;;;2.30;1.23;;;;;;;;;;5099312;28;20466;-77
2022/09/14 02:44:26;;;;;;;0.70;0.70;;;;;;;;;;5101020;28;20450;-77
2022/09/14 02:46:57;;;;;;;4.27;2.63;;;;;;;;;;5100302;28;20475;-76
2022/09/14 02:49:29;;;;;;;0.80;0.80;;;;;;;;;;5106610;28;20461;-76
2022/09/14 02:51:58;;;;;;;3.03;1.67;;;;;;;;;;5093183;28;20607;-77
2022/09/14 02:54:28;;;;;;;1.10;0.73;;;;;;;;;;5066443;28;20483;-76
2022/09/14 02:57:01;;;;;;;1.30;1.20;;;;;;;;;;5092667;28;20438;-77
2022/09/14 02:59:29;;;;;;;2.60;2.40;;;;;;;;;;5097532;28;20470;-76
2022/09/14 03:01:58;;;;;;;4.73;1.30;;;;;;;;;;5064949;28;20515;-76
2022/09/14 03:04:28;;;;;;;0.93;0.93;;;;;;;;;;5082970;28;20459;-76
2022/09/14 03:07:00;;;;;;;1.00;0.90;;;;;;;;;;5080093;28;20894;-77
2022/09/14 03:09:29;;;;;;;0.70;0.70;;;;;;;;;;5084175;28;20441;-77
2022/09/14 03:11:58;;;;;;;2.07;1.20;;;;;;;;;;5058073;28;20445;-77
2022/09/14 03:14:27;;;;;;;4.20;2.60;;;;;;;;;;5074153;28;20540;-77
2022/09/14 03:16:59;;;;;;;0.80;0.80;;;;;;;;;;5061360;28;20446;-76
2022/09/14 03:19:31;;;;;;;2.50;1.77;;;;;;;;;;5091460;28;20495;-77
2022/09/14 03:22:02;;;;;;;0.80;0.80;;;;;;;;;;5083438;28;20530;-76
2022/09/14 03:24:35;;;;;;;3.40;2.97;;;;;;;;;;5084689;28;20431;-77
2022/09/14 03:27:12;;;;;;;0.77;0.77;;;;;;;;;;5083384;28;20833;-76
2022/09/14 03:29:44;;;;;;;0.77;0.77;;;;;;;;;;5087550;28;20508;-77
2022/09/14 03:32:17;;;;;;;0.90;0.90;;;;;;;;;;5085935;28;20435;-76
2022/09/14 03:34:53;;;;;;;0.60;0.60;;;;;;;;;;5082888;28;20490;-76
2022/09/14 03:37:35;;;;;;;0.70;0.60;;;;;;;;;;5057260;28;21008;-77
2022/09/14 03:40:06;;;;;;;2.90;2.70;;;;;;;;;;5083304;28;20456;-77
2022/09/14 03:42:36;;;;;;;0.70;0.60;;;;;;;;;;5097172;28;20465;-77
2022/09/14 03:45:11;;;;;;;9.23;2.03;;;;;;;;;;5080728;28;20446;-76
2022/09/14 03:47:42;;;;;;;1.50;1.40;;;;;;;;;;5075330;28;20457;-76
2022/09/14 03:50:14;;;;;;;0.93;0.93;;;;;;;;;;5082853;28;20934;-77
2022/09/14 03:52:42;;;;;;;4.30;2.10;;;;;;;;;;5075761;28;20485;-77
2022/09/14 03:55:14;;;;;;;2.50;1.17;;;;;;;;;;5082446;28;20455;-77
2022/09/14 03:57:41;;;;;;;2.50;2.40;;;;;;;;;;5104032;28;20439;-78
2022/09/14 04:00:08;;;;;;;1.40;1.33;;;;;;;;;;5102323;28;20439;-76
2022/09/14 04:02:38;;;;;;;1.03;0.97;;;;;;;;;;5082400;28;20473;-77
2022/09/14 04:05:05;;;;;;;1.27;1.03;;;;;;;;;;5086095;28;21026;-76
2022/09/14 04:07:34;;;;;;;0.67;0.63;;;;;;;;;;5084702;28;20987;-77
2022/09/14 04:10:00;;;;;;;0.70;0.70;;;;;;;;;;5082675;28;20436;-78
2022/09/14 04:12:32;;;;;;;1.67;1.57;;;;;;;;;;5080387;28;20424;-77
2022/09/14 04:15:00;;;;;;;0.70;0.67;;;;;;;;;;5074262;28;20938;-77
2022/09/14 04:17:27;;;;;;;0.80;0.80;;;;;;;;;;5074395;28;20932;-77
2022/09/14 04:19:54;;;;;;;0.70;0.70;;;;;;;;;;5087215;28;20493;-77
2022/09/14 04:22:21;;;;;;;1.00;0.90;;;;;;;;;;5080055;28;20477;-77
2022/09/14 04:24:49;;;;;;;0.70;0.70;;;;;;;;;;5102930;28;20450;-76
2022/09/14 04:27:16;;;;;;;0.70;0.70;;;;;;;;;;5080367;28;20525;-77
2022/09/14 04:29:44;;;;;;;0.90;0.90;;;;;;;;;;5098983;28;20803;-77
2022/09/14 04:32:11;;;;;;;0.63;0.60;;;;;;;;;;5068300;28;20839;-77
2022/09/14 04:34:38;;;;;;;0.70;0.70;;;;;;;;;;5086138;28;20857;-78
2022/09/14 04:37:04;;;;;;;0.70;0.70;;;;;;;;;;5081293;28;20967;-78
2022/09/14 04:39:31;;;;;;;0.70;0.70;;;;;;;;;;5081580;28;20475;-78
2022/09/14 04:42:00;;;;;;;1.30;1.20;;;;;;;;;;5092375;28;20486;-78
2022/09/14 04:44:27;;;;;;;0.70;0.70;;;;;;;;;;5078729;28;20452;-78
2022/09/14 04:46:54;;;;;;;0.70;0.70;;;;;;;;;;5078810;28;20446;-78
2022/09/14 04:49:21;;;;;;;0.83;0.83;;;;;;;;;;5079437;28;20483;-78
2022/09/14 04:51:48;;;;;;;1.20;0.83;;;;;;;;;;5080407;28;20547;-79
2022/09/14 04:54:16;;;;;;;0.80;0.80;;;;;;;;;;5079447;28;20518;-78
2022/09/14 04:56:43;;;;;;;1.00;1.00;;;;;;;;;;5096631;28;20431;-78
2022/09/14 04:59:11;;;;;;;1.93;1.83;;;;;;;;;;5077576;28;20451;-77
2022/09/14 05:01:40;;;;;;;0.70;0.63;;;;;;;;;;5069874;28;20447;-77
2022/09/14 05:04:08;;;;;;;0.70;0.70;;;;;;;;;;5077157;28;20452;-78
2022/09/14 05:06:36;;;;;;;1.07;1.07;;;;;;;;;;5088730;28;20518;-77
2022/09/14 05:09:04;;;;;;;1.00;1.00;;;;;;;;;;5077654;28;20450;-77
2022/09/14 05:11:32;;;;;;;1.33;1.23;;;;;;;;;;5083743;28;20432;-78
2022/09/14 05:14:00;;;;;;;1.20;1.10;;;;;;;;;;5079815;28;20450;-78
2022/09/14 05:16:28;;;;;;;0.80;0.80;;;;;;;;;;5079040;28;20443;-77
2022/09/14 05:19:01;;;;;;;2.77;1.13;;;;;;;;;;5082580;28;20500;-78
2022/09/14 05:21:30;;;;;;;4.87;1.80;;;;;;;;;;5063397;28;20495;-79
2022/09/14 05:24:01;;;;;;;0.60;0.60;;;;;;;;;;5081755;28;20461;-79
2022/09/14 05:26:29;;;;;;;2.43;2.33;;;;;;;;;;5080228;28;20800;-78
2022/09/14 05:28:57;;;;;;;0.80;0.80;;;;;;;;;;5085680;28;20537;-79
2022/09/14 05:31:25;;;;;;;1.63;1.53;;;;;;;;;;5090257;28;20449;-79
2022/09/14 05:33:53;;;;;;;0.77;0.77;;;;;;;;;;5079311;28;20544;-78
2022/09/14 05:36:20;;;;;;;0.60;0.60;;;;;;;;;;5056772;28;20816;-79
2022/09/14 05:38:47;;;;;;;1.00;0.90;;;;;;;;;;5080581;28;20461;-78
2022/09/14 05:41:15;;;;;;;0.70;0.70;;;;;;;;;;5042119;28;20446;-79
2022/09/14 05:43:43;;;;;;;0.63;0.60;;;;;;;;;;5058327;28;20467;-78
2022/09/14 05:46:12;;;;;;;0.60;0.60;;;;;;;;;;5079522;28;20464;-78
2022/09/14 05:48:39;;;;;;;0.70;0.70;;;;;;;;;;5080674;28;20460;-77
2022/09/14 05:51:09;;;;;;;0.80;0.80;;;;;;;;;;5097894;28;20473;-74
2022/09/14 05:53:37;;;;;;;0.70;0.70;;;;;;;;;;5082915;28;20454;-75
2022/09/14 05:56:05;;;;;;;1.23;1.13;;;;;;;;;;5075404;28;20442;-76
2022/09/14 05:58:32;;;;;;;0.70;0.70;;;;;;;;;;5067410;28;20460;-75
2022/09/14 06:01:05;;;;;;;0.80;0.80;;;;;;;;;;5090118;28;20481;-78
2022/09/14 06:03:31;;;;;;;0.60;0.60;;;;;;;;;;5091952;28;20481;-76
2022/09/14 06:05:58;;;;;;;1.87;1.37;;;;;;;;;;5059280;28;20466;-76
2022/09/14 06:08:26;;;;;;;0.70;0.70;;;;;;;;;;5082922;28;20455;-76
2022/09/14 06:10:53;;;;;;;0.70;0.70;;;;;;;;;;5077289;28;20441;-76
2022/09/14 06:13:22;;;;;;;0.70;0.70;;;;;;;;;;5086703;28;20535;-76
2022/09/14 06:15:48;;;;;;;1.67;0.87;;;;;;;;;;5098012;28;20429;-76
2022/09/14 06:18:16;;;;;;;0.70;0.70;;;;;;;;;;5088528;28;20426;-76
2022/09/14 06:20:48;;;;;;;1.47;1.30;;;;;;;;;;5081279;28;20469;-76
2022/09/14 06:23:15;;;;;;;2.20;1.67;;;;;;;;;;5079563;28;20471;-77
2022/09/14 06:25:43;;;;;;;0.90;0.90;;;;;;;;;;5087210;28;20449;-76
2022/09/14 06:28:12;;;;;;;0.70;0.63;;;;;;;;;;5098123;28;20460;-77
2022/09/14 06:30:41;;;;;;;0.70;0.70;;;;;;;;;;5079686;28;20435;-77
2022/09/14 06:33:08;;;;;;;0.67;0.67;;;;;;;;;;5075216;28;20962;-78
2022/09/14 06:35:34;;;;;;;1.17;1.07;;;;;;;;;;5078472;28;20970;-78
2022/09/14 06:38:01;;;;;;;1.00;0.90;;;;;;;;;;5062502;28;21072;-79
2022/09/14 06:40:28;;;;;;;0.80;0.80;;;;;;;;;;5087313;28;20456;-79
2022/09/14 06:43:01;;;;;;;1.30;1.20;;;;;;;;;;5084173;28;20477;-79
2022/09/14 06:45:28;;;;;;;1.93;1.17;;;;;;;;;;5082508;28;20438;-78
2022/09/14 06:47:55;;;;;;;0.80;0.80;;;;;;;;;;5099165;28;20438;-78
2022/09/14 06:50:22;;;;;;;0.67;0.60;;;;;;;;;;5080129;28;20519;-78
2022/09/14 06:52:49;;;;;;;0.70;0.70;;;;;;;;;;5082490;28;20456;-77
2022/09/14 06:55:16;;;;;;;0.90;0.90;;;;;;;;;;5076349;28;20448;-78
2022/09/14 06:57:46;;;;;;;0.67;0.63;;;;;;;;;;5072069;28;20457;-77
2022/09/14 07:00:14;;;;;;;0.60;0.60;;;;;;;;;;5079133;28;20448;-77
2022/09/14 07:02:42;;;;;;;0.60;0.60;;;;;;;;;;5066018;28;20464;-78
2022/09/14 07:05:09;;;;;;;1.47;1.37;;;;;;;;;;5080697;28;20491;-77
2022/09/14 07:07:36;;;;;;;0.70;0.60;;;;;;;;;;5086586;28;20438;-77
2022/09/14 07:10:03;;;;;;;0.80;0.80;;;;;;;;;;5082774;28;20538;-77
2022/09/14 07:12:29;;;;;;;0.60;0.60;;;;;;;;;;5079414;28;20544;-77
2022/09/14 07:14:56;;;;;;;0.70;0.70;;;;;;;;;;5095281;28;20447;-78
2022/09/14 07:17:24;;;;;;;0.60;0.60;;;;;;;;;;5081229;28;20437;-78
2022/09/14 07:19:51;;;;;;;0.70;0.60;;;;;;;;;;5078257;28;20450;-77
2022/09/14 07:22:19;;;;;;;0.60;0.60;;;;;;;;;;5082823;28;21017;-76
2022/09/14 07:24:47;;;;;;;0.60;0.60;;;;;;;;;;5088068;28;20968;-77
2022/09/14 07:27:15;;;;;;;0.60;0.60;;;;;;;;;;5079258;28;20440;-77
2022/09/14 07:29:41;;;;;;;0.70;0.70;;;;;;;;;;5079095;28;20439;-75
2022/09/14 07:32:08;;;;;;;0.70;0.60;;;;;;;;;;5083886;28;20453;-76
2022/09/14 07:34:37;;;;;;;0.70;0.70;;;;;;;;;;5086165;28;20537;-75
2022/09/14 07:37:04;;;;;;;0.80;0.80;;;;;;;;;;5086376;28;20470;-75
2022/09/14 07:39:31;;;;;;;0.70;0.70;;;;;;;;;;5085077;28;20951;-75
2022/09/14 07:41:58;;;;;;;1.07;1.03;;;;;;;;;;5079129;28;20449;-76
2022/09/14 07:44:26;;;;;;;1.00;0.90;;;;;;;;;;5080034;28;20495;-76
2022/09/14 07:46:53;;;;;;;0.60;0.60;;;;;;;;;;5086191;28;20438;-76
2022/09/14 07:49:21;;;;;;;0.60;0.60;;;;;;;;;;5069220;28;20933;-76
2022/09/14 07:51:51;;;;;;;0.70;0.70;;;;;;;;;;5083673;28;20476;-75
2022/09/14 07:54:18;;;;;;;0.70;0.70;;;;;;;;;;5092972;28;20428;-75
2022/09/14 07:56:45;;;;;;;0.70;0.70;;;;;;;;;;5088996;28;21044;-75
2022/09/14 07:59:12;;;;;;;0.67;0.60;;;;;;;;;;5088050;28;20456;-75
2022/09/14 08:02:00;;;;;;;0.80;0.80;;;;;;;;;;5084195;28;20503;-75
2022/09/14 08:04:27;;;;;;;1.80;1.10;;;;;;;;;;5082227;28;20542;-75
2022/09/14 08:06:57;;;;;;;0.60;0.60;;;;;;;;;;5084469;28;20462;-75
2022/09/14 08:09:24;;;;;;;1.33;1.23;;;;;;;;;;5079532;28;20434;-75
2022/09/14 08:11:51;;;;;;;0.70;0.70;;;;;;;;;;5086127;28;20502;-75
2022/09/14 08:14:18;;;;;;;0.90;0.90;;;;;;;;;;5093145;28;20421;-74
2022/09/14 08:16:44;;;;;;;0.60;0.60;;;;;;;;;;5086829;28;20471;-74
2022/09/14 08:19:12;;;;;;;0.60;0.60;;;;;;;;;;5087403;28;20437;-74
2022/09/14 08:21:39;;;;;;;0.60;0.60;;;;;;;;;;5089823;28;20468;-75
2022/09/14 08:24:15;;;;;;;0.80;0.80;;;;;;;;;;5076804;28;20462;-75
2022/09/14 08:26:43;;;;;;;1.37;1.27;;;;;;;;;;5088582;28;20456;-74
2022/09/14 08:29:10;;;;;;;0.73;0.73;;;;;;;;;;5104432;28;20497;-74
2022/09/14 08:31:38;;;;;;;0.83;0.77;;;;;;;;;;5083983;28;20503;-74
2022/09/14 08:34:05;;;;;;;0.60;0.60;;;;;;;;;;5089255;28;20490;-74
2022/09/14 08:36:32;;;;;;;0.70;0.70;;;;;;;;;;5104592;28;20455;-75
2022/09/14 08:39:00;;;;;;;0.70;0.63;;;;;;;;;;5084349;28;20442;-75
2022/09/14 08:41:30;;;;;;;1.00;1.00;;;;;;;;;;5088229;28;20928;-76
2022/09/14 08:44:01;;;;;;;0.70;0.70;;;;;;;;;;5079649;28;20471;-75
2022/09/14 08:46:29;;;;;;;0.90;0.90;;;;;;;;;;5088638;28;20430;-76
2022/09/14 08:48:57;;;;;;;0.70;0.70;;;;;;;;;;5072666;28;20489;-77
2022/09/14 08:51:24;;;;;;;1.83;1.73;;;;;;;;;;5072155;28;20455;-76
2022/09/14 08:53:52;;;;;;;0.80;0.80;;;;;;;;;;5084783;28;20426;-76
2022/09/14 08:56:21;;;;;;;2.20;1.13;;;;;;;;;;5082400;28;20453;-75
2022/09/14 08:58:55;;;;;;;0.60;0.60;;;;;;;;;;5081254;28;20964;-75
2022/09/14 09:01:24;;;;;;;0.70;0.70;;;;;;;;;;5081464;28;20434;-75
2022/09/14 09:03:57;;;;;;;1.50;1.43;;;;;;;;;;5086942;28;20470;-74
2022/09/14 09:06:28;;;;;;;1.47;1.37;;;;;;;;;;5064731;28;20986;-74
2022/09/14 09:08:59;;;;;;;1.10;0.97;;;;;;;;;;5075951;28;20454;-74
2022/09/14 09:11:29;;;;;;;0.63;0.63;;;;;;;;;;5078808;28;20458;-74
2022/09/14 09:13:57;;;;;;;1.63;0.90;;;;;;;;;;5082611;28;20485;-74
2022/09/14 09:16:30;;;;;;;0.60;0.60;;;;;;;;;;5083731;28;20926;-75
2022/09/14 09:18:59;;;;;;;0.70;0.67;;;;;;;;;;5071082;28;21500;-75
2022/09/14 09:21:29;;;;;;;0.60;0.60;;;;;;;;;;5068942;28;20483;-75
2022/09/14 09:24:03;;;;;;;1.87;1.00;;;;;;;;;;5077487;28;20987;-74
2022/09/14 09:26:31;;;;;;;0.70;0.70;;;;;;;;;;5090584;28;20924;-75
2022/09/14 09:29:00;;;;;;;0.60;0.50;;;;;;;;;;5073794;28;20480;-76
2022/09/14 09:31:49;;;;;;;0.93;0.93;;;;;;;;;;5074813;28;20802;-76
2022/09/14 09:34:45;;;;;;;0.80;0.80;;;;;;;;;;5020497;28;20437;-75
2022/09/14 09:37:25;;;;;;;0.70;0.60;;;;;;;;;;5078002;28;21048;-75
2022/09/14 09:39:51;;;;;;;0.60;0.60;;;;;;;;;;5072734;28;20878;-74
2022/09/14 09:42:20;;;;;;;0.60;0.60;;;;;;;;;;5102631;28;20467;-75
2022/09/14 09:44:57;;;;;;;0.90;0.90;;;;;;;;;;5061806;28;20801;-75
2022/09/14 09:47:29;;;;;;;0.80;0.80;;;;;;;;;;5058273;28;20441;-74
2022/09/14 09:49:58;;;;;;;0.70;0.70;;;;;;;;;;5082008;28;20438;-74
2022/09/14 09:52:25;;;;;;;0.60;0.60;;;;;;;;;;5077193;28;20497;-75
2022/09/14 09:54:58;;;;;;;0.70;0.60;;;;;;;;;;5082490;28;20735;-75
2022/09/14 09:57:29;;;;;;;0.70;0.70;;;;;;;;;;5081758;28;20433;-76
2022/09/14 10:00:19;;;;;;;0.80;0.80;;;;;;;;;;5085314;28;20459;-74
2022/09/14 10:02:46;;;;;;;0.60;0.60;;;;;;;;;;5078481;28;20442;-74
2022/09/14 10:05:21;;;;;;;0.60;0.60;;;;;;;;;;5073863;28;20493;-76
2022/09/14 10:07:52;;;;;;;0.90;0.90;;;;;;;;;;5076120;28;20459;-75
2022/09/14 10:10:20;;;;;;;0.77;0.77;;;;;;;;;;5104377;28;20527;-75
2022/09/14 10:12:48;;;;;;;0.70;0.70;;;;;;;;;;5051435;28;20556;-75
2022/09/14 10:15:16;;;;;;;0.80;0.80;;;;;;;;;;5093885;28;20702;-75
2022/09/14 10:18:01;;;;;;;0.70;0.70;;;;;;;;;;5080427;28;20550;-75
2022/09/14 10:20:30;;;;;;;0.70;0.70;;;;;;;;;;5079367;28;20483;-74
2022/09/14 10:23:13;;;;;;;0.70;0.70;;;;;;;;;;5075018;28;20435;-77
2022/09/14 10:25:40;;;;;;;0.80;0.80;;;;;;;;;;5089199;28;20800;-74
2022/09/14 10:28:18;;;;;;;0.70;0.70;;;;;;;;;;5073102;28;20430;-75
2022/09/14 10:30:49;;;;;;;0.90;0.90;;;;;;;;;;5078071;28;20449;-75
2022/09/14 10:33:18;;;;;;;0.97;0.97;;;;;;;;;;5081356;28;20429;-74
2022/09/14 10:35:49;;;;;;;2.13;1.30;;;;;;;;;;5086464;28;20465;-74
2022/09/14 10:38:25;;;;;;;0.70;0.70;;;;;;;;;;5077658;28;20984;-76
2022/09/14 10:40:57;;;;;;;0.70;0.60;;;;;;;;;;5085446;28;20448;-75
2022/09/14 10:43:29;;;;;;;0.70;0.70;;;;;;;;;;5091252;28;20434;-76
2022/09/14 10:45:58;;;;;;;1.07;0.97;;;;;;;;;;5077909;28;20492;-76
2022/09/14 10:48:46;;;;;;;0.67;0.63;;;;;;;;;;5077696;28;20436;-75
2022/09/14 10:51:24;;;;;;;0.60;0.60;;;;;;;;;;5076530;28;20505;-75
2022/09/14 10:53:54;;;;;;;0.60;0.60;;;;;;;;;;5062463;28;20486;-75
2022/09/14 10:56:23;;;;;;;1.10;1.00;;;;;;;;;;5091162;28;20434;-75
2022/09/14 10:59:00;;;;;;;0.70;0.70;;;;;;;;;;5081906;28;20440;-76
2022/09/14 11:01:31;;;;;;;0.60;0.60;;;;;;;;;;5100206;28;20531;-76
2022/09/14 11:04:03;;;;;;;0.60;0.60;;;;;;;;;;5064003;28;20491;-75
2022/09/14 11:06:38;;;;;;;0.80;0.80;;;;;;;;;;5088351;28;20454;-76
2022/09/14 11:09:06;;;;;;;1.17;1.07;;;;;;;;;;5088611;28;20450;-76
2022/09/14 11:11:38;;;;;;;0.73;0.73;;;;;;;;;;5079969;28;20908;-76
2022/09/14 11:14:13;;;;;;;0.70;0.70;;;;;;;;;;5080397;28;20439;-75
2022/09/14 11:16:49;;;;;;;1.70;1.60;;;;;;;;;;5084374;28;20532;-76
2022/09/14 11:19:19;;;;;;;0.70;0.63;;;;;;;;;;5089013;28;20547;-75
2022/09/14 11:21:51;;;;;;;0.70;0.70;;;;;;;;;;5087946;28;20482;-76
2022/09/14 11:24:21;;;;;;;0.73;0.73;;;;;;;;;;5110879;28;20473;-76
2022/09/14 11:26:53;;;;;;;0.70;0.70;;;;;;;;;;5091134;28;20464;-75
2022/09/14 11:29:23;;;;;;;0.70;0.70;;;;;;;;;;5094370;28;20431;-75
2022/09/14 11:31:51;;;;;;;0.80;0.80;;;;;;;;;;5083183;28;20436;-75
2022/09/14 11:34:41;;;;;;;0.80;0.80;;;;;;;;;;5098702;28;20827;-76
2022/09/14 11:37:11;;;;;;;2.00;1.90;;;;;;;;;;5084252;28;20469;-77
2022/09/14 11:39:42;;;;;;;0.70;0.67;;;;;;;;;;5084908;28;20431;-75
2022/09/14 11:42:11;;;;;;;0.70;0.70;;;;;;;;;;5099839;28;20964;-76
2022/09/14 11:44:40;;;;;;;0.60;0.60;;;;;;;;;;5094423;28;20471;-76
2022/09/14 11:47:08;;;;;;;1.00;1.00;;;;;;;;;;5099048;28;20432;-77
2022/09/14 11:49:43;;;;;;;0.70;0.60;;;;;;;;;;5081149;28;20453;-76
2022/09/14 11:52:15;;;;;;;1.17;1.07;;;;;;;;;;5071235;28;20492;-75
2022/09/14 11:54:42;;;;;;;0.70;0.70;;;;;;;;;;5067376;28;20445;-75
2022/09/14 11:57:16;;;;;;;0.70;0.70;;;;;;;;;;5078355;28;20766;-74
2022/09/14 11:59:49;;;;;;;0.80;0.80;;;;;;;;;;5096402;28;20836;-74
2022/09/14 12:02:50;;;;;;;0.70;0.70;;;;;;;;;;5075937;28;20454;-75
2022/09/14 12:05:25;;;;;;;1.23;1.13;;;;;;;;;;5066855;28;20466;-75
2022/09/14 12:08:01;;;;;;;1.00;0.90;;;;;;;;;;5085033;28;20434;-75
2022/09/14 12:10:28;;;;;;;0.70;0.70;;;;;;;;;;5078603;28;20543;-75
2022/09/14 12:12:56;;;;;;;1.20;1.10;;;;;;;;;;5088191;28;20463;-76
2022/09/14 12:15:33;;;;;;;0.70;0.60;;;;;;;;;;5079180;28;20446;-76
2022/09/14 12:18:20;;;;;;;0.73;0.73;;;;;;;;;;5068779;28;20435;-76
2022/09/14 12:20:51;;;;;;;0.70;0.70;;;;;;;;;;5083217;28;20454;-75
2022/09/14 12:23:25;;;;;;;1.13;1.07;;;;;;;;;;5073430;28;20996;-77
2022/09/14 12:26:11;;;;;;;0.90;0.90;;;;;;;;;;5077547;28;20462;-76
2022/09/14 12:28:39;;;;;;;0.70;0.60;;;;;;;;;;5081112;28;20421;-76
2022/09/14 12:31:27;;;;;;;5.90;1.57;;;;;;;;;;5084324;28;20431;-76
2022/09/14 12:34:13;;;;;;;0.70;0.70;;;;;;;;;;5068559;28;20522;-77
2022/09/14 12:36:59;;;;;;;0.60;0.60;;;;;;;;;;5082734;28;20562;-77
2022/09/14 12:39:29;;;;;;;0.60;0.60;;;;;;;;;;5076897;28;20831;-75
2022/09/14 12:42:04;;;;;;;0.80;0.80;;;;;;;;;;5082705;28;20840;-75
2022/09/14 12:44:32;;;;;;;0.67;0.60;;;;;;;;;;5082732;28;20460;-75
2022/09/14 12:47:15;;;;;;;0.80;0.80;;;;;;;;;;5068693;28;20841;-77
2022/09/14 12:49:42;;;;;;;0.70;0.70;;;;;;;;;;5074920;28;20800;-76
2022/09/14 12:52:16;;;;;;;0.70;0.70;;;;;;;;;;5078192;28;20521;-76
2022/09/14 12:54:54;;;;;;;0.70;0.70;;;;;;;;;;5088242;28;20435;-77
2022/09/14 12:57:46;;;;;;;0.70;0.60;;;;;;;;;;5080629;28;20440;-77
2022/09/14 13:00:15;;;;;;;0.67;0.67;;;;;;;;;;5086094;28;20473;-77
2022/09/14 13:03:05;;;;;;;0.97;0.97;;;;;;;;;;5099282;28;20488;-75
2022/09/14 13:05:33;;;;;;;0.83;0.80;;;;;;;;;;5091603;28;20475;-77
2022/09/14 13:08:00;;;;;;;0.70;0.70;;;;;;;;;;5121305;28;20449;-77
2022/09/14 13:10:32;;;;;;;0.70;0.70;;;;;;;;;;5084418;28;20437;-76
2022/09/14 13:13:00;;;;;;;1.10;0.73;;;;;;;;;;5077529;28;20447;-76
2022/09/14 13:15:29;;;;;;;2.10;1.50;;;;;;;;;;5089313;28;20447;-79
2022/09/14 13:18:00;;;;;;;0.77;0.77;;;;;;;;;;5080999;28;20447;-77
2022/09/14 13:20:28;;;;;;;1.17;1.03;;;;;;;;;;5083306;28;20444;-77
2022/09/14 13:22:55;;;;;;;1.40;1.30;;;;;;;;;;5094391;28;20419;-79
2022/09/14 13:25:31;;;;;;;0.70;0.70;;;;;;;;;;5085420;28;20476;-77
2022/09/14 13:28:00;;;;;;;0.60;0.60;;;;;;;;;;5083595;28;20436;-78
2022/09/14 13:30:27;;;;;;;0.70;0.60;;;;;;;;;;5085414;28;20429;-78
2022/09/14 13:32:55;;;;;;;0.73;0.73;;;;;;;;;;5089818;28;20475;-77
2022/09/14 13:35:26;;;;;;;0.60;0.60;;;;;;;;;;5102277;28;20447;-77
2022/09/14 13:37:52;;;;;;;0.67;0.60;;;;;;;;;;5092355;28;20540;-77
2022/09/14 13:40:21;;;;;;;0.60;0.57;;;;;;;;;;5080191;28;20441;-77
2022/09/14 13:42:48;;;;;;;0.70;0.70;;;;;;;;;;5075511;28;20440;-76
2022/09/14 13:45:17;;;;;;;1.20;1.10;;;;;;;;;;5083573;28;20470;-78
2022/09/14 13:47:43;;;;;;;0.70;0.60;;;;;;;;;;5082317;28;20456;-76
2022/09/14 13:50:11;;;;;;;0.70;0.70;;;;;;;;;;5078978;28;20505;-77
2022/09/14 13:52:38;;;;;;;0.70;0.60;;;;;;;;;;5083913;28;20482;-76
2022/09/14 13:55:26;;;;;;;0.70;0.70;;;;;;;;;;5084746;28;20435;-76
2022/09/14 13:58:06;;;;;;;0.70;0.60;;;;;;;;;;5089711;28;20437;-78
2022/09/14 14:00:45;;;;;;;1.00;1.00;;;;;;;;;;5079476;28;20430;-78
2022/09/14 14:03:19;;;;;;;0.70;0.70;;;;;;;;;;5074482;28;20427;-77
2022/09/14 14:05:47;;;;;;;0.70;0.70;;;;;;;;;;5082004;28;20481;-78
2022/09/14 14:08:23;;;;;;;0.70;0.70;;;;;;;;;;5079715;28;20432;-77
2022/09/14 14:10:52;;;;;;;0.67;0.60;;;;;;;;;;5072939;28;20437;-76
2022/09/14 14:13:23;;;;;;;0.70;0.60;;;;;;;;;;5065172;28;20456;-76
2022/09/14 14:15:52;;;;;;;0.70;0.70;;;;;;;;;;5078582;28;20464;-77
2022/09/14 14:18:31;;;;;;;0.70;0.67;;;;;;;;;;5085864;28;20439;-76
2022/09/14 14:21:10;;;;;;;0.80;0.80;;;;;;;;;;5081956;28;20577;-76
2022/09/14 14:23:37;;;;;;;0.67;0.63;;;;;;;;;;5078609;28;20438;-75
2022/09/14 14:26:25;;;;;;;0.70;0.60;;;;;;;;;;5077327;28;20456;-75
2022/09/14 14:28:53;;;;;;;0.67;0.60;;;;;;;;;;5066738;28;20442;-75
2022/09/14 14:31:21;;;;;;;0.70;0.60;;;;;;;;;;5075427;28;20453;-75
2022/09/14 14:33:49;;;;;;;0.80;0.80;;;;;;;;;;5083125;28;20457;-76
2022/09/14 14:36:17;;;;;;;2.50;1.50;;;;;;;;;;5082685;28;20533;-76
2022/09/14 14:38:46;;;;;;;0.60;0.60;;;;;;;;;;5089134;28;20438;-75
2022/09/14 14:41:14;;;;;;;0.70;0.60;;;;;;;;;;5081241;28;20442;-79
2022/09/14 14:43:42;;;;;;;0.70;0.60;;;;;;;;;;5081628;28;20925;-79
2022/09/14 14:46:09;;;;;;;0.70;0.70;;;;;;;;;;5082158;28;20469;-79
2022/09/14 14:48:38;;;;;;;0.80;0.80;;;;;;;;;;5064213;28;20457;-78
2022/09/14 14:51:05;;;;;;;0.80;0.80;;;;;;;;;;5065474;28;20476;-76
2022/09/14 14:53:32;;;;;;;0.70;0.70;;;;;;;;;;5079298;28;20532;-76
2022/09/14 14:55:59;;;;;;;0.60;0.60;;;;;;;;;;5097678;28;20488;-76
2022/09/14 14:58:26;;;;;;;0.70;0.70;;;;;;;;;;5085933;28;20535;-75
2022/09/14 15:00:53;;;;;;;0.70;0.70;;;;;;;;;;5095520;28;20442;-77
2022/09/14 15:03:24;;;;;;;0.60;0.60;;;;;;;;;;5083341;28;20455;-76